Aérodrome :
LOGIN :

S'inscrire | Disclaimer

   EN    FR    IT 

 










Légende :    VFR   VFR Marginal   IFR   IFR Intensif   IFR Très Intensif
Visi : 
Plafond : 
>= 8 km
>= 3000ft
5 à 8 km
1000 à 3000 ft
1500m à 5 km
500 à 1000 ft
800 à 1500m
200 à 500 ft
< 800m
< 200 ft
Symboles :   Orages  Brouillard  Fortes neiges  Fortes précipitations  Vent > 20 kt
SIGMETs :   Divers  Orages  Givrage  Turbulence  Onde Orograph.  Cendres Volcan.







- Altitude de l'aérodrome : 74 ft
- Code IATA : NDZ


ETMN - Cuxhaven Nordholz Sea AB

DERNIER METAR :
  • 231420Z 02004KT 9999 SCT007 BKN015 12/10 Q1014 WHT WHT TEMPO GRN

METARs EXPIRÉS :
  • 231336Z 36003KT 9999 BKN007 BKN018 12/11 Q1013 GRN WHT TEMPO GRN
  • 231320Z 02003KT 9999 BKN004 BKN018 12/11 Q1012 YLO YLO BECMG WHT
  • 231220Z VRB02KT 5000 BR BKN004 12/11 Q1011 YLO GRN TEMPO YLO
  • 231209Z VRB03KT 5000 BR BKN004 12/11 Q1011 YLO GRN TEMPO YLO

TAF TAF ETMN
Valide du 23 à 14h jusqu'au 23 à 23h UTC


231325Z 2314/2323 34005KT 9999 NSW BKN005 BKN015
BECMG 2314/2315 34005KT 9999 NSW SCT010 BKN020
TEMPO 2315/2318 34005KT 9999 NSW SCT007 BKN010
BECMG 2318/2320 VRB03KT 3000 BR BKN005
Pas de NOTAMs connus pour ce terrain.



MET'MAP, la Météo Aéronautique d'un coup d'oeil ! - Copyright ORBIFLY Décembre 2007 - Disclaimer

ORBIFLY MET'MAP TEAM :

Programmation & Développement : Alexandra Zaïnal
Conception & Développement : Baudouin d'Aumeries
Co-Programmation & Développement : Marc-Olivier Méhu
Soutien technique & logistique : Manuel Goepfert

Contact : metmap@orbifly.com




SOURCES & CREDITS :

   NOAA